createdAt,value
2023-02-12T00:00:51.918Z,9.68
2023-02-12T00:03:19.632Z,9.11
2023-02-12T00:05:47.135Z,9.04
2023-02-12T00:08:16.293Z,8.73
2023-02-12T00:10:44.406Z,8.71
2023-02-12T00:13:12.662Z,9.06
2023-02-12T00:15:40.920Z,9.27
2023-02-12T00:18:09.874Z,9.18
2023-02-12T00:20:38.620Z,9.31
2023-02-12T00:23:06.848Z,8.94
2023-02-12T00:25:34.666Z,9.16
2023-02-12T00:28:02.148Z,9.10
2023-02-12T00:30:29.727Z,9.48
2023-02-12T00:32:57.309Z,9.54
2023-02-12T00:35:26.014Z,9.54
2023-02-12T00:37:53.482Z,9.17
2023-02-12T00:40:21.210Z,9.01
2023-02-12T00:42:48.698Z,9.15
2023-02-12T00:45:16.171Z,8.91
2023-02-12T00:47:43.654Z,9.41
2023-02-12T00:50:12.182Z,9.24
2023-02-12T00:52:40.975Z,8.76
2023-02-12T00:55:09.209Z,8.83
2023-02-12T00:57:36.702Z,8.42
2023-02-12T01:00:04.793Z,8.39
2023-02-12T01:02:32.393Z,8.66
2023-02-12T01:04:59.897Z,8.54
2023-02-12T01:07:27.336Z,8.57
2023-02-12T01:09:56.072Z,8.64
2023-02-12T01:12:23.502Z,8.69
2023-02-12T01:14:50.926Z,8.67
2023-02-12T01:17:18.370Z,8.96
2023-02-12T01:19:45.821Z,9.27
2023-02-12T01:22:13.272Z,8.95
2023-02-12T01:24:40.744Z,8.90
2023-02-12T01:27:09.484Z,8.99
2023-02-12T01:29:37.006Z,8.93
2023-02-12T01:32:04.926Z,8.66
2023-02-12T01:34:32.465Z,9.04
2023-02-12T01:36:59.902Z,8.89
2023-02-12T01:39:27.308Z,8.61
2023-02-12T01:41:54.724Z,9.15
2023-02-12T01:44:25.925Z,8.91
2023-02-12T01:46:57.649Z,9.09
2023-02-12T01:49:29.945Z,9.27
2023-02-12T01:52:02.147Z,9.35
2023-02-12T01:54:30.205Z,9.44
2023-02-12T01:56:58.094Z,9.24
2023-02-12T01:59:27.344Z,9.59
2023-02-12T02:01:55.786Z,9.64
2023-02-12T02:04:28.414Z,8.99
2023-02-12T02:06:59.274Z,9.13
2023-02-12T02:09:28.010Z,8.85
2023-02-12T02:12:12.690Z,8.95
2023-02-12T02:14:42.847Z,9.05
2023-02-12T02:17:41.656Z,8.91
2023-02-12T02:20:42.821Z,8.96
2023-02-12T02:23:26.961Z,8.87
2023-02-12T02:26:22.388Z,8.89
2023-02-12T02:29:05.607Z,9.02
2023-02-12T02:31:42.104Z,9.25
2023-02-12T02:34:16.865Z,9.17
2023-02-12T02:37:00.029Z,9.37
2023-02-12T02:39:36.068Z,9.32
2023-02-12T02:42:11.159Z,9.40
2023-02-12T02:44:43.369Z,9.44
2023-02-12T02:47:14.978Z,9.57
2023-02-12T02:49:47.088Z,9.31
2023-02-12T02:52:21.544Z,9.50
2023-02-12T02:54:54.251Z,9.27
2023-02-12T02:57:27.210Z,9.50
2023-02-12T02:59:59.299Z,8.89
2023-02-12T03:02:32.278Z,8.57
2023-02-12T03:05:04.435Z,8.80
2023-02-12T03:07:37.716Z,9.04
2023-02-12T03:10:12.197Z,9.22
2023-02-12T03:12:44.815Z,9.45
2023-02-12T03:15:19.156Z,9.16
2023-02-12T03:17:50.162Z,9.49
2023-02-12T03:20:21.499Z,8.63
2023-02-12T03:22:54.660Z,9.37
2023-02-12T03:25:26.676Z,9.63
2023-02-12T03:28:00.441Z,9.64
2023-02-12T03:30:41.272Z,9.54
2023-02-12T03:33:18.003Z,9.23
2023-02-12T03:35:54.516Z,9.49
2023-02-12T03:38:31.496Z,9.75
2023-02-12T03:41:05.145Z,9.80
2023-02-12T03:43:39.596Z,9.55
2023-02-12T03:46:16.327Z,9.58
2023-02-12T03:48:52.960Z,9.50
2023-02-12T03:51:25.707Z,9.69
2023-02-12T03:53:53.601Z,9.83
2023-02-12T03:56:25.411Z,9.83
2023-02-12T03:58:52.884Z,9.75
2023-02-12T04:01:20.520Z,9.53
2023-02-12T04:03:49.542Z,9.85
2023-02-12T04:06:21.077Z,9.75
2023-02-12T04:08:48.664Z,9.56
2023-02-12T04:11:26.927Z,9.58
2023-02-12T04:14:09.188Z,9.75
2023-02-12T04:16:44.262Z,9.80
2023-02-12T04:19:21.348Z,9.78
2023-02-12T04:21:58.476Z,9.78
2023-02-12T04:24:34.841Z,9.54
2023-02-12T04:27:10.474Z,9.93
2023-02-12T04:29:49.409Z,9.91
2023-02-12T04:32:21.752Z,9.85
2023-02-12T04:34:58.713Z,9.90
2023-02-12T04:37:32.529Z,9.68
2023-02-12T04:40:01.481Z,9.67
2023-02-12T04:42:29.001Z,9.74
2023-02-12T04:44:56.444Z,9.62
2023-02-12T04:47:23.866Z,9.58
2023-02-12T04:49:52.692Z,9.72
2023-02-12T04:52:20.119Z,9.84
2023-02-12T04:54:47.576Z,9.90
2023-02-12T04:57:15.053Z,9.63
2023-02-12T04:59:42.508Z,9.58
2023-02-12T05:02:10.236Z,9.65
2023-02-12T05:04:37.705Z,9.57
2023-02-12T05:07:06.506Z,9.70
2023-02-12T05:09:34.084Z,9.88
2023-02-12T05:12:01.544Z,9.90
2023-02-12T05:14:29.651Z,9.78
2023-02-12T05:16:57.118Z,9.89
2023-02-12T05:19:24.539Z,9.85
2023-02-12T05:21:52.239Z,9.90
2023-02-12T05:24:20.995Z,9.88
2023-02-12T05:26:50.034Z,9.92
2023-02-12T05:29:17.852Z,9.89
2023-02-12T05:31:45.790Z,9.82
2023-02-12T05:34:14.701Z,9.68
2023-02-12T05:36:42.206Z,9.76
2023-02-12T05:39:09.629Z,9.74
2023-02-12T05:41:38.411Z,9.62
2023-02-12T05:44:06.536Z,9.76
2023-02-12T05:46:34.923Z,9.78
2023-02-12T05:49:02.382Z,9.91
2023-02-12T05:51:32.107Z,9.75
2023-02-12T05:54:01.192Z,10.02
2023-02-12T05:56:30.647Z,9.92
2023-02-12T05:59:02.255Z,10.02
2023-02-12T06:01:32.057Z,10.06
2023-02-12T06:04:00.617Z,10.00
2023-02-12T06:06:28.301Z,10.08
2023-02-12T06:08:55.859Z,9.90
2023-02-12T06:11:23.948Z,9.77
2023-02-12T06:13:51.762Z,9.42
2023-02-12T06:16:22.785Z,9.43
2023-02-12T06:18:51.187Z,9.41
2023-02-12T06:21:20.028Z,9.32
2023-02-12T06:23:48.085Z,9.48
2023-02-12T06:26:16.448Z,9.58
2023-02-12T06:28:43.932Z,9.25
2023-02-12T06:31:20.385Z,9.31
2023-02-12T06:33:50.138Z,9.58
2023-02-12T06:36:17.897Z,9.45
2023-02-12T06:38:45.461Z,9.15
2023-02-12T06:41:13.414Z,9.45
2023-02-12T06:43:40.915Z,9.26
2023-02-12T06:46:09.107Z,9.35
2023-02-12T06:48:36.814Z,9.49
2023-02-12T06:51:11.147Z,9.29
2023-02-12T06:53:38.904Z,9.38
2023-02-12T06:56:11.207Z,9.38
2023-02-12T06:58:39.575Z,9.32
2023-02-12T07:01:13.870Z,9.43
2023-02-12T07:03:42.140Z,8.45
2023-02-12T07:06:11.792Z,8.75
2023-02-12T07:08:39.814Z,9.27
2023-02-12T07:11:07.646Z,9.62
2023-02-12T07:13:35.685Z,9.35
2023-02-12T07:16:07.585Z,9.65
2023-02-12T07:18:35.573Z,9.64
2023-02-12T07:21:03.414Z,9.36
2023-02-12T07:23:32.308Z,9.34
2023-02-12T07:26:01.922Z,9.24
2023-02-12T07:28:33.482Z,9.53
2023-02-12T07:31:01.617Z,9.80
2023-02-12T07:33:29.043Z,9.97
2023-02-12T07:35:56.926Z,9.86
2023-02-12T07:38:24.765Z,9.87
2023-02-12T07:40:53.622Z,9.79
2023-02-12T07:43:21.039Z,9.90
2023-02-12T07:45:48.570Z,10.06
2023-02-12T07:48:16.047Z,10.16
2023-02-12T07:50:43.482Z,10.27
2023-02-12T07:53:10.887Z,10.20
2023-02-12T07:55:38.338Z,10.28
2023-02-12T07:58:07.087Z,10.24
2023-02-12T08:00:34.665Z,10.24
2023-02-12T08:03:02.097Z,9.96
2023-02-12T08:05:29.711Z,10.28
2023-02-12T08:07:57.140Z,10.14
2023-02-12T08:10:24.674Z,10.24
2023-02-12T08:12:52.117Z,10.16
2023-02-12T08:15:20.913Z,10.42
2023-02-12T08:17:48.380Z,10.58
2023-02-12T08:20:16.061Z,10.45
2023-02-12T08:22:43.529Z,9.96
2023-02-12T08:25:10.997Z,10.06
2023-02-12T08:27:38.409Z,10.24
2023-02-12T08:30:06.544Z,10.22
2023-02-12T08:32:35.304Z,10.07
2023-02-12T08:35:02.741Z,10.16
2023-02-12T08:37:30.177Z,10.51
2023-02-12T08:39:57.582Z,10.56
2023-02-12T08:42:25.725Z,10.57
2023-02-12T08:44:53.133Z,10.30
2023-02-12T08:47:20.586Z,10.33
2023-02-12T08:49:49.437Z,10.16
2023-02-12T08:52:16.873Z,10.59
2023-02-12T08:54:44.358Z,10.27
2023-02-12T08:57:11.799Z,10.05
2023-02-12T08:59:39.241Z,10.22
2023-02-12T09:02:08.902Z,10.62
2023-02-12T09:04:36.676Z,10.64
2023-02-12T09:07:05.523Z,10.00
2023-02-12T09:09:33.012Z,10.30
2023-02-12T09:12:00.492Z,10.35
2023-02-12T09:14:27.971Z,12.29
2023-02-12T09:16:57.329Z,12.22
2023-02-12T09:19:24.901Z,12.50
2023-02-12T09:21:55.871Z,12.60
2023-02-12T09:24:27.416Z,13.58
2023-02-12T09:26:55.065Z,13.45
2023-02-12T09:29:22.470Z,13.52
2023-02-12T09:31:50.185Z,13.41
2023-02-12T09:34:17.674Z,13.83
2023-02-12T09:36:45.197Z,13.62
2023-02-12T09:39:12.842Z,13.38
2023-02-12T09:42:17.859Z,13.15
2023-02-12T09:44:51.487Z,12.82
2023-02-12T09:47:27.229Z,13.21
2023-02-12T09:50:13.593Z,13.48
2023-02-12T09:52:41.786Z,13.36
2023-02-12T09:55:15.633Z,13.38
2023-02-12T09:57:45.394Z,13.30
2023-02-12T10:00:17.436Z,13.54
2023-02-12T10:02:45.012Z,12.97
2023-02-12T10:05:18.469Z,13.67
2023-02-12T10:08:02.309Z,14.16
2023-02-12T10:10:44.405Z,13.67
2023-02-12T10:13:23.782Z,13.12
2023-02-12T10:15:59.868Z,12.72
2023-02-12T10:18:46.968Z,12.36
2023-02-12T10:21:30.430Z,12.17
2023-02-12T10:24:17.048Z,12.00
2023-02-12T10:26:49.114Z,11.68
2023-02-12T10:29:22.365Z,11.69
2023-02-12T10:31:54.027Z,11.77
2023-02-12T10:34:24.699Z,11.51
2023-02-12T10:36:55.820Z,11.72
2023-02-12T10:39:25.939Z,11.66
2023-02-12T10:41:59.725Z,11.53
2023-02-12T10:44:28.800Z,11.45
2023-02-12T10:46:56.465Z,11.54
2023-02-12T10:49:24.331Z,11.54
2023-02-12T10:52:01.613Z,11.83
2023-02-12T10:54:37.888Z,11.35
2023-02-12T10:57:11.413Z,11.35
2023-02-12T10:59:40.522Z,11.42
2023-02-12T11:02:20.230Z,11.25
2023-02-12T11:04:48.049Z,10.46
2023-02-12T11:07:15.458Z,9.98
2023-02-12T11:09:46.228Z,10.13
2023-02-12T11:12:21.878Z,10.58
2023-02-12T11:14:53.374Z,10.12
2023-02-12T11:17:26.752Z,9.65
2023-02-12T11:20:09.737Z,9.93
2023-02-12T11:22:37.779Z,9.90
2023-02-12T11:25:16.870Z,10.24
2023-02-12T11:27:45.177Z,10.48
2023-02-12T11:30:18.355Z,9.99
2023-02-12T11:32:46.592Z,9.84
2023-02-12T11:35:18.362Z,9.94
2023-02-12T11:37:47.894Z,9.94
2023-02-12T11:40:20.829Z,9.79
2023-02-12T11:42:52.466Z,10.04
2023-02-12T11:45:23.619Z,9.65
2023-02-12T11:47:52.282Z,9.80
2023-02-12T11:50:27.261Z,9.25
2023-02-12T11:52:58.578Z,9.32
2023-02-12T11:55:28.429Z,9.48
2023-02-12T11:58:03.712Z,9.79
2023-02-12T12:00:37.485Z,10.30
2023-02-12T12:03:12.099Z,9.73
2023-02-12T12:05:45.499Z,8.84
2023-02-12T12:08:20.643Z,8.99
2023-02-12T12:10:52.470Z,8.98
2023-02-12T12:13:26.055Z,9.39
2023-02-12T12:16:18.657Z,9.17
2023-02-12T12:19:07.460Z,9.79
2023-02-12T12:21:41.635Z,9.75
2023-02-12T12:24:14.649Z,10.24
2023-02-12T12:26:47.264Z,10.16
2023-02-12T12:29:20.793Z,10.01
2023-02-12T12:31:53.496Z,9.97
2023-02-12T12:34:23.397Z,10.59
2023-02-12T12:37:12.007Z,10.44
2023-02-12T12:39:49.648Z,10.65
2023-02-12T12:42:57.692Z,10.44
2023-02-12T12:45:48.493Z,10.17
2023-02-12T12:48:26.550Z,10.13
2023-02-12T12:51:10.071Z,10.97
2023-02-12T12:53:50.619Z,11.09
2023-02-12T12:56:38.363Z,10.98
2023-02-12T12:59:26.823Z,10.49
2023-02-12T13:02:18.644Z,10.71
2023-02-12T13:05:05.464Z,10.33
2023-02-12T13:07:47.394Z,10.53
2023-02-12T13:10:24.125Z,9.83
2023-02-12T13:13:05.398Z,9.32
2023-02-12T13:15:40.791Z,10.20
2023-02-12T13:18:18.858Z,10.23
2023-02-12T13:20:53.653Z,10.01
2023-02-12T13:23:27.076Z,10.67
2023-02-12T13:26:04.167Z,10.85
2023-02-12T13:28:36.271Z,10.07
2023-02-12T13:31:30.081Z,10.03
2023-02-12T13:33:59.010Z,10.53
2023-02-12T13:36:27.817Z,10.84
2023-02-12T13:38:59.454Z,11.56
2023-02-12T13:41:28.251Z,11.68
2023-02-12T13:44:05.965Z,11.96
2023-02-12T13:46:46.146Z,11.38
2023-02-12T13:49:27.120Z,10.74
2023-02-12T13:52:02.155Z,11.29
2023-02-12T13:54:46.639Z,11.56
2023-02-12T13:57:16.437Z,11.64
2023-02-12T13:59:49.828Z,11.46
2023-02-12T14:02:49.458Z,11.31
2023-02-12T14:05:29.431Z,11.19
2023-02-12T14:08:00.792Z,12.11
2023-02-12T14:10:31.999Z,11.95
2023-02-12T14:13:13.055Z,12.16
2023-02-12T14:15:44.522Z,11.90
2023-02-12T14:18:34.724Z,12.05
2023-02-12T14:21:44.020Z,12.03
2023-02-12T14:24:51.447Z,12.12
2023-02-12T14:27:30.142Z,12.19
2023-02-12T14:30:27.531Z,12.31
2023-02-12T14:33:25.116Z,11.63
2023-02-12T14:36:21.122Z,12.19
2023-02-12T14:38:59.363Z,12.04
2023-02-12T14:41:41.857Z,12.35
2023-02-12T14:44:42.117Z,12.32
2023-02-12T14:47:17.263Z,12.27
2023-02-12T14:49:47.783Z,12.28
2023-02-12T14:52:19.492Z,12.26
2023-02-12T14:54:50.636Z,12.20
2023-02-12T14:57:26.985Z,12.18
2023-02-12T14:59:57.168Z,12.10
2023-02-12T15:02:27.067Z,12.18
2023-02-12T15:04:59.259Z,12.44
2023-02-12T15:07:32.611Z,12.24
2023-02-12T15:10:10.025Z,12.43
2023-02-12T15:12:44.151Z,12.44
2023-02-12T15:15:22.301Z,12.56
2023-02-12T15:17:58.948Z,12.47
2023-02-12T15:20:35.386Z,12.14
2023-02-12T15:23:04.364Z,12.01
2023-02-12T15:25:33.405Z,12.09
2023-02-12T15:28:05.504Z,11.96
2023-02-12T15:30:36.003Z,12.20
2023-02-12T15:33:06.619Z,11.66
2023-02-12T15:35:37.007Z,12.24
2023-02-12T15:38:07.559Z,11.85
2023-02-12T15:40:35.952Z,12.08
2023-02-12T15:43:06.298Z,11.95
2023-02-12T15:45:35.786Z,11.93
2023-02-12T15:48:13.172Z,11.91
2023-02-12T15:50:51.005Z,11.48
2023-02-12T15:53:19.211Z,11.42
2023-02-12T15:55:48.541Z,11.89
2023-02-12T15:58:23.670Z,11.26
2023-02-12T16:00:52.492Z,11.74
2023-02-12T16:03:22.007Z,11.19
2023-02-12T16:05:50.516Z,11.09
2023-02-12T16:08:19.990Z,11.95
2023-02-12T16:10:50.825Z,12.11
2023-02-12T16:13:20.426Z,11.99
2023-02-12T16:16:05.505Z,11.38
2023-02-12T16:18:33.006Z,11.38
2023-02-12T16:21:07.593Z,11.60
2023-02-12T16:23:36.085Z,12.00
2023-02-12T16:26:03.842Z,11.75
2023-02-12T16:28:33.658Z,11.61
2023-02-12T16:31:14.638Z,11.43
2023-02-12T16:33:47.807Z,11.68
2023-02-12T16:36:30.344Z,11.38
2023-02-12T16:38:59.721Z,11.17
2023-02-12T16:41:31.033Z,10.81
2023-02-12T16:44:27.064Z,11.27
2023-02-12T16:46:57.929Z,11.53
2023-02-12T16:49:27.318Z,11.23
2023-02-12T16:52:14.966Z,11.04
2023-02-12T16:54:42.462Z,11.12
2023-02-12T16:57:12.095Z,11.50
2023-02-12T16:59:43.463Z,10.99
2023-02-12T17:02:15.606Z,10.80
2023-02-12T17:04:43.628Z,11.16
2023-02-12T17:07:19.406Z,10.75
2023-02-12T17:09:46.802Z,10.91
2023-02-12T17:12:14.414Z,11.23
2023-02-12T17:14:41.986Z,10.97
2023-02-12T17:17:09.566Z,10.63
2023-02-12T17:19:38.396Z,11.09
2023-02-12T17:22:08.914Z,10.66
2023-02-12T17:24:36.435Z,11.07
2023-02-12T17:27:03.959Z,11.02
2023-02-12T17:29:31.680Z,11.15
2023-02-12T17:31:59.206Z,10.58
2023-02-12T17:34:28.750Z,10.88
2023-02-12T17:36:59.023Z,11.14
2023-02-12T17:39:26.473Z,11.47
2023-02-12T17:41:53.938Z,11.66
2023-02-12T17:44:21.367Z,11.73
2023-02-12T17:46:48.796Z,11.67
2023-02-12T17:49:16.535Z,11.79
2023-02-12T17:51:43.949Z,11.60
2023-02-12T17:54:13.920Z,11.50
2023-02-12T17:56:41.322Z,11.63
2023-02-12T17:59:08.735Z,11.45
2023-02-12T18:01:36.399Z,11.70
2023-02-12T18:04:03.906Z,11.60
2023-02-12T18:06:32.225Z,11.70
2023-02-12T18:09:01.645Z,11.67
2023-02-12T18:11:32.133Z,11.61
2023-02-12T18:14:00.753Z,11.66
2023-02-12T18:16:31.207Z,11.52
2023-02-12T18:18:59.867Z,11.61
2023-02-12T18:21:27.637Z,11.62
2023-02-12T18:23:55.569Z,11.41
2023-02-12T18:26:23.938Z,11.33
2023-02-12T18:28:53.817Z,11.44
2023-02-12T18:31:21.750Z,11.40
2023-02-12T18:33:49.183Z,11.51
2023-02-12T18:36:18.834Z,11.50
2023-02-12T18:38:48.368Z,11.56
2023-02-12T18:41:18.100Z,11.14
2023-02-12T18:43:46.284Z,11.49
2023-02-12T18:46:16.716Z,11.38
2023-02-12T18:48:44.703Z,11.02
2023-02-12T18:51:16.266Z,11.47
2023-02-12T18:53:44.186Z,11.39
2023-02-12T18:56:12.751Z,11.45
2023-02-12T18:58:40.820Z,11.38
2023-02-12T19:01:17.126Z,10.95
2023-02-12T19:03:45.157Z,10.86
2023-02-12T19:06:12.890Z,10.99
2023-02-12T19:08:40.598Z,11.10
2023-02-12T19:11:08.474Z,11.02
2023-02-12T19:13:36.181Z,10.67
2023-02-12T19:16:07.865Z,11.11
2023-02-12T19:18:36.792Z,11.44
2023-02-12T19:21:07.058Z,11.29
2023-02-12T19:23:34.583Z,11.22
2023-02-12T19:26:05.885Z,10.96
2023-02-12T19:28:34.351Z,11.27
2023-02-12T19:31:10.608Z,11.21
2023-02-12T19:33:40.828Z,11.19
2023-02-12T19:36:09.340Z,11.47
2023-02-12T19:38:37.124Z,11.54
2023-02-12T19:41:05.470Z,11.63
2023-02-12T19:43:33.016Z,11.47
2023-02-12T19:46:04.089Z,10.92
2023-02-12T19:48:31.633Z,11.07
2023-02-12T19:51:00.440Z,11.19
2023-02-12T19:53:28.727Z,11.02
2023-02-12T19:55:56.708Z,11.23
2023-02-12T19:58:24.196Z,11.02
2023-02-12T20:00:51.747Z,11.08
2023-02-12T20:03:19.952Z,11.18
2023-02-12T20:05:52.191Z,11.31
2023-02-12T20:08:21.049Z,11.33
2023-02-12T20:10:48.527Z,11.13
2023-02-12T20:13:18.824Z,11.24
2023-02-12T20:15:46.479Z,11.25
2023-02-12T20:18:15.972Z,11.35
2023-02-12T20:20:43.581Z,10.89
2023-02-12T20:23:11.034Z,11.07
2023-02-12T20:25:44.788Z,11.33
2023-02-12T20:28:12.343Z,11.39
2023-02-12T20:30:41.795Z,11.40
2023-02-12T20:33:10.170Z,11.30
2023-02-12T20:35:38.169Z,11.48
2023-02-12T20:38:06.094Z,11.66
2023-02-12T20:40:33.985Z,11.47
2023-02-12T20:43:03.878Z,11.45
2023-02-12T20:45:31.753Z,11.41
2023-02-12T20:47:59.424Z,11.30
2023-02-12T20:50:27.199Z,11.40
2023-02-12T20:52:54.800Z,11.34
2023-02-12T20:55:23.696Z,10.98
2023-02-12T20:57:51.111Z,11.20
2023-02-12T21:00:21.672Z,11.18
2023-02-12T21:02:49.368Z,11.33
2023-02-12T21:05:17.062Z,11.39
2023-02-12T21:07:45.559Z,11.55
2023-02-12T21:10:12.988Z,11.33
2023-02-12T21:12:40.630Z,10.89
2023-02-12T21:15:08.756Z,11.43
2023-02-12T21:17:37.621Z,11.53
2023-02-12T21:20:06.423Z,11.33
2023-02-12T21:22:33.849Z,11.59
2023-02-12T21:25:01.265Z,11.72
2023-02-12T21:27:28.664Z,11.47
2023-02-12T21:29:56.061Z,11.39
2023-02-12T21:32:23.561Z,11.54
2023-02-12T21:34:52.395Z,11.45
2023-02-12T21:37:19.829Z,11.56
2023-02-12T21:39:47.232Z,11.24
2023-02-12T21:42:14.642Z,11.26
2023-02-12T21:44:42.088Z,11.26
2023-02-12T21:47:09.766Z,11.46
2023-02-12T21:49:37.333Z,11.46
2023-02-12T21:52:07.120Z,11.44
2023-02-12T21:54:34.797Z,11.21
2023-02-12T21:57:02.254Z,11.43
2023-02-12T21:59:32.122Z,11.46
2023-02-12T22:02:00.722Z,11.08
2023-02-12T22:04:28.734Z,11.32
2023-02-12T22:06:56.545Z,11.56
2023-02-12T22:09:25.498Z,11.15
2023-02-12T22:11:53.437Z,10.41
2023-02-12T22:14:21.980Z,11.21
2023-02-12T22:16:49.961Z,11.02
2023-02-12T22:19:17.655Z,11.11
2023-02-12T22:21:45.486Z,10.85
2023-02-12T22:24:15.168Z,10.44
2023-02-12T22:26:44.836Z,10.60
2023-02-12T22:29:14.073Z,10.56
2023-02-12T22:31:43.324Z,9.88
2023-02-12T22:34:13.237Z,9.79
2023-02-12T22:36:41.990Z,10.31
2023-02-12T22:39:10.988Z,10.47
2023-02-12T22:41:38.711Z,10.54
2023-02-12T22:44:07.567Z,10.49
2023-02-12T22:46:36.185Z,10.78
2023-02-12T22:49:03.770Z,10.51
2023-02-12T22:51:33.369Z,10.29
2023-02-12T22:54:01.662Z,10.26
2023-02-12T22:56:29.317Z,10.49
2023-02-12T22:58:58.066Z,9.91
2023-02-12T23:01:27.243Z,10.21
2023-02-12T23:03:54.820Z,10.08
2023-02-12T23:06:23.841Z,10.03
2023-02-12T23:08:52.264Z,9.99
2023-02-12T23:11:20.423Z,10.10
2023-02-12T23:13:48.504Z,10.16
2023-02-12T23:16:16.194Z,10.17
2023-02-12T23:18:45.150Z,10.30
2023-02-12T23:21:12.607Z,10.12
2023-02-12T23:23:40.056Z,10.43
2023-02-12T23:26:07.814Z,10.66
2023-02-12T23:28:35.305Z,10.29
2023-02-12T23:31:03.368Z,10.43
2023-02-12T23:33:30.953Z,10.61
2023-02-12T23:36:00.042Z,10.65
2023-02-12T23:38:27.577Z,10.54
2023-02-12T23:40:55.123Z,10.65
2023-02-12T23:43:22.659Z,10.60
2023-02-12T23:45:50.276Z,10.22
2023-02-12T23:48:17.776Z,10.30
2023-02-12T23:50:49.448Z,10.23
2023-02-12T23:53:19.454Z,9.39
2023-02-12T23:55:49.803Z,9.22
2023-02-12T23:58:17.302Z,9.62
